createdAt,value
2023-04-26T00:02:29.439Z,99052.97
2023-04-26T00:06:32.527Z,99052.22
2023-04-26T00:10:35.402Z,99054.13
2023-04-26T00:14:40.696Z,99059.44
2023-04-26T00:18:44.923Z,99063.28
2023-04-26T00:22:48.123Z,99059.56
2023-04-26T00:26:51.441Z,99073.84
2023-04-26T00:30:58.068Z,99063.75
2023-04-26T00:35:01.139Z,99070.31
2023-04-26T00:39:04.444Z,99071.63
2023-04-26T00:43:08.428Z,99074.56
2023-04-26T00:47:13.022Z,99083.22
2023-04-26T00:51:17.009Z,99079.97
2023-04-26T00:55:21.795Z,99077.22
2023-04-26T00:59:25.363Z,99075.19
2023-04-26T01:03:30.734Z,99083.63
2023-04-26T01:07:34.246Z,99083.78
2023-04-26T01:11:38.485Z,99089.69
2023-04-26T01:15:46.912Z,99091.97
2023-04-26T01:19:52.198Z,99094.66
2023-04-26T01:23:56.835Z,99086.50
2023-04-26T01:27:59.870Z,99087.50
2023-04-26T01:32:02.768Z,99095.28
2023-04-26T01:36:10.021Z,99102.53
2023-04-26T01:40:15.200Z,99102.84
2023-04-26T01:44:18.108Z,99105.88
2023-04-26T01:48:21.221Z,99096.16
2023-04-26T01:52:24.755Z,99101.88
2023-04-26T01:56:28.678Z,99114.22
2023-04-26T02:00:32.148Z,99111.38
2023-04-26T02:04:34.924Z,99104.41
2023-04-26T02:08:37.751Z,99113.84
2023-04-26T02:12:42.211Z,99121.63
2023-04-26T02:16:45.558Z,99116.31
2023-04-26T02:20:48.896Z,99116.91
2023-04-26T02:24:53.344Z,99114.78
2023-04-26T02:28:57.716Z,99115.53
2023-04-26T02:33:01.378Z,99125.88
2023-04-26T02:37:04.533Z,99118.44
2023-04-26T02:41:07.765Z,99122.13
2023-04-26T02:45:12.346Z,99123.28
2023-04-26T02:49:15.374Z,99126.41
2023-04-26T02:53:18.292Z,99127.69
2023-04-26T02:57:21.492Z,99136.09
2023-04-26T03:01:27.134Z,99128.81
2023-04-26T03:05:30.472Z,99124.94
2023-04-26T03:09:34.718Z,99129.16
2023-04-26T03:13:37.693Z,99136.59
2023-04-26T03:17:41.907Z,99127.69
2023-04-26T03:21:45.282Z,99136.78
2023-04-26T03:25:48.242Z,99141.41
2023-04-26T03:29:51.627Z,99140.69
2023-04-26T03:33:59.108Z,99151.38
2023-04-26T03:38:02.083Z,99148.78
2023-04-26T03:42:06.346Z,99141.81
2023-04-26T03:46:09.182Z,99146.19
2023-04-26T03:50:13.846Z,99151.47
2023-04-26T03:54:17.311Z,99156.84
2023-04-26T03:58:20.332Z,99156.59
2023-04-26T04:02:24.286Z,99154.56
2023-04-26T04:06:28.853Z,99162.56
2023-04-26T04:10:31.931Z,99169.75
2023-04-26T04:14:35.017Z,99173.72
2023-04-26T04:18:38.275Z,99172.06
2023-04-26T04:22:42.341Z,99179.16
2023-04-26T04:26:45.009Z,99188.47
2023-04-26T04:30:48.235Z,99176.25
2023-04-26T04:34:52.130Z,99179.47
2023-04-26T04:38:56.395Z,99178.69
2023-04-26T04:43:01.151Z,99173.41
2023-04-26T04:47:06.418Z,99186.06
2023-04-26T04:51:09.343Z,99198.72
2023-04-26T04:55:13.825Z,99193.81
2023-04-26T04:59:17.073Z,99208.75
2023-04-26T05:03:20.238Z,99212.97
2023-04-26T05:07:24.619Z,99211.72
2023-04-26T05:11:29.217Z,99212.19
2023-04-26T05:15:31.861Z,99227.97
2023-04-26T05:19:34.610Z,99229.13
2023-04-26T05:23:37.881Z,99223.19
2023-04-26T05:27:42.468Z,99238.31
2023-04-26T05:31:45.613Z,99228.63
2023-04-26T05:35:48.642Z,99239.31
2023-04-26T05:39:51.901Z,99234.63
2023-04-26T05:43:57.271Z,99240.34
2023-04-26T05:48:00.163Z,99250.19
2023-04-26T05:52:03.822Z,99246.31
2023-04-26T05:56:07.209Z,99237.44
2023-04-26T06:00:13.089Z,99245.09
2023-04-26T06:04:16.260Z,99245.28
2023-04-26T06:08:19.631Z,99248.66
2023-04-26T06:12:22.639Z,99247.09
2023-04-26T06:16:26.999Z,99252.56
2023-04-26T06:20:29.879Z,99252.78
2023-04-26T06:24:32.784Z,99243.19
2023-04-26T06:28:40.511Z,99260.50
2023-04-26T06:32:46.422Z,99252.47
2023-04-26T06:36:49.369Z,99258.00
2023-04-26T06:40:52.220Z,99246.50
2023-04-26T06:44:55.073Z,99259.31
2023-04-26T06:48:59.382Z,99249.63
2023-04-26T06:53:02.053Z,99260.16
2023-04-26T06:57:04.850Z,99271.19
2023-04-26T07:01:08.844Z,99269.09
2023-04-26T07:05:13.530Z,99280.06
2023-04-26T07:09:16.931Z,99283.28
2023-04-26T07:13:20.174Z,99278.94
2023-04-26T07:17:25.574Z,99275.13
2023-04-26T07:21:29.999Z,99280.81
2023-04-26T07:25:33.120Z,99280.16
2023-04-26T07:29:36.420Z,99281.00
2023-04-26T07:33:39.911Z,99288.94
2023-04-26T07:37:44.653Z,99292.19
2023-04-26T07:41:47.500Z,99301.09
2023-04-26T07:45:53.153Z,99286.69
2023-04-26T07:49:55.869Z,99284.31
2023-04-26T07:53:59.986Z,99293.84
2023-04-26T07:58:02.990Z,99292.00
2023-04-26T08:02:05.932Z,99292.47
2023-04-26T08:06:09.335Z,99303.41
2023-04-26T08:10:16.521Z,99302.13
2023-04-26T08:14:19.677Z,99299.50
2023-04-26T08:18:22.819Z,99299.47
2023-04-26T08:22:26.127Z,99309.53
2023-04-26T08:26:30.630Z,99317.81
2023-04-26T08:30:35.362Z,99297.66
2023-04-26T08:34:38.514Z,99320.47
2023-04-26T08:38:41.607Z,99318.88
2023-04-26T08:42:46.472Z,99311.47
2023-04-26T08:47:02.971Z,99302.06
2023-04-26T08:51:08.963Z,99325.97
2023-04-26T08:55:13.133Z,99319.38
2023-04-26T08:59:17.940Z,99318.84
2023-04-26T09:03:21.237Z,99338.41
2023-04-26T09:07:31.394Z,99335.28
2023-04-26T09:11:52.893Z,99332.00
2023-04-26T09:15:58.001Z,99321.50
2023-04-26T09:20:02.057Z,99336.63
2023-04-26T09:24:06.937Z,99344.31
2023-04-26T09:28:22.794Z,99349.13
2023-04-26T09:32:27.401Z,99338.28
2023-04-26T09:36:30.576Z,99348.16
2023-04-26T09:40:34.988Z,99347.50
2023-04-26T09:44:40.786Z,99356.22
2023-04-26T09:48:46.626Z,99351.41
2023-04-26T09:52:50.026Z,99358.22
2023-04-26T09:57:01.313Z,99349.53
2023-04-26T10:01:05.759Z,99346.97
2023-04-26T10:05:11.017Z,99347.41
2023-04-26T10:09:14.212Z,99354.06
2023-04-26T10:13:18.081Z,99353.19
2023-04-26T10:17:24.479Z,99350.03
2023-04-26T10:21:33.030Z,99344.47
2023-04-26T10:25:42.591Z,99359.78
2023-04-26T10:30:09.497Z,99360.44
2023-04-26T10:34:22.627Z,99361.41
2023-04-26T10:38:27.269Z,99373.28
2023-04-26T10:42:32.508Z,99365.41
2023-04-26T10:46:40.399Z,99365.50
2023-04-26T10:51:12.635Z,99366.25
2023-04-26T10:55:39.821Z,99375.81
2023-04-26T11:00:03.460Z,99373.28
2023-04-26T11:04:08.631Z,99380.63
2023-04-26T11:08:18.477Z,99392.94
2023-04-26T11:12:24.540Z,99397.31
2023-04-26T11:16:31.028Z,99393.72
2023-04-26T11:20:34.690Z,99400.50
2023-04-26T11:24:39.698Z,99405.41
2023-04-26T11:28:45.450Z,99404.94
2023-04-26T11:32:48.520Z,99414.84
2023-04-26T11:36:53.728Z,99417.47
2023-04-26T11:40:58.343Z,99409.34
2023-04-26T11:45:07.161Z,99403.44
2023-04-26T11:49:11.353Z,99403.19
2023-04-26T11:53:14.513Z,99406.03
2023-04-26T11:57:18.611Z,99417.13
2023-04-26T12:01:24.060Z,99423.50
2023-04-26T12:05:28.656Z,99427.38
2023-04-26T12:09:32.720Z,99438.84
2023-04-26T12:13:35.585Z,99427.53
2023-04-26T12:17:39.694Z,99416.91
2023-04-26T12:21:43.723Z,99427.44
2023-04-26T12:25:55.855Z,99433.22
2023-04-26T12:29:59.034Z,99431.19
2023-04-26T12:34:03.780Z,99427.94
2023-04-26T12:38:06.564Z,99426.22
2023-04-26T12:42:09.782Z,99435.34
2023-04-26T12:46:13.092Z,99440.91
2023-04-26T12:50:18.707Z,99444.75
2023-04-26T12:54:21.892Z,99458.03
2023-04-26T12:58:25.629Z,99450.97
2023-04-26T13:02:28.825Z,99444.16
2023-04-26T13:06:33.542Z,99447.03
2023-04-26T13:10:36.853Z,99448.22
2023-04-26T13:14:41.138Z,99450.78
2023-04-26T13:18:44.142Z,99454.50
2023-04-26T13:22:51.532Z,99454.91
2023-04-26T13:26:58.107Z,99454.34
2023-04-26T13:31:03.761Z,99446.09
2023-04-26T13:35:12.347Z,99447.56
2023-04-26T13:39:19.274Z,99455.16
2023-04-26T13:43:22.353Z,99461.97
2023-04-26T13:47:25.169Z,99461.53
2023-04-26T13:51:30.670Z,99462.56
2023-04-26T13:55:35.100Z,99466.69
2023-04-26T13:59:38.028Z,99475.75
2023-04-26T14:03:41.261Z,99477.72
2023-04-26T14:07:44.300Z,99486.31
2023-04-26T14:11:57.047Z,99502.59
2023-04-26T14:16:11.185Z,99495.84
2023-04-26T14:20:14.652Z,99490.47
2023-04-26T14:24:17.934Z,99509.13
2023-04-26T14:28:22.414Z,99512.47
2023-04-26T14:32:25.432Z,99523.16
2023-04-26T14:36:28.872Z,99522.47
2023-04-26T14:40:31.959Z,99526.81
2023-04-26T14:44:38.152Z,99523.75
2023-04-26T14:48:46.216Z,99532.38
2023-04-26T14:52:49.627Z,99529.84
2023-04-26T14:56:52.933Z,99522.59
2023-04-26T15:00:57.020Z,99528.31
2023-04-26T15:05:01.247Z,99532.09
2023-04-26T15:09:08.941Z,99536.44
2023-04-26T15:13:11.984Z,99537.59
2023-04-26T15:17:16.083Z,99543.78
2023-04-26T15:21:18.969Z,99531.22
2023-04-26T15:25:22.258Z,99545.38
2023-04-26T15:29:25.596Z,99539.91
2023-04-26T15:33:32.115Z,99548.44
2023-04-26T15:37:38.293Z,99546.22
2023-04-26T15:41:41.254Z,99540.97
2023-04-26T15:45:44.517Z,99546.63
2023-04-26T15:49:49.480Z,99546.19
2023-04-26T15:53:52.811Z,99536.41
2023-04-26T15:57:55.753Z,99547.16
2023-04-26T16:01:58.829Z,99542.09
2023-04-26T16:06:04.123Z,99544.69
2023-04-26T16:10:07.971Z,99553.06
2023-04-26T16:14:11.466Z,99548.75
2023-04-26T16:18:14.884Z,99556.00
2023-04-26T16:22:19.790Z,99550.84
2023-04-26T16:26:23.561Z,99558.97
2023-04-26T16:30:26.444Z,99555.75
2023-04-26T16:34:29.553Z,99559.75
2023-04-26T16:38:33.641Z,99552.88
2023-04-26T16:42:36.249Z,99557.69
2023-04-26T16:46:39.774Z,99571.41
2023-04-26T16:50:43.103Z,99571.25
2023-04-26T16:54:47.496Z,99571.09
2023-04-26T16:58:50.530Z,99573.38
2023-04-26T17:02:53.548Z,99565.94
2023-04-26T17:06:56.472Z,99573.31
2023-04-26T17:11:03.936Z,99580.16
2023-04-26T17:15:08.880Z,99582.16
2023-04-26T17:19:12.277Z,99589.00
2023-04-26T17:23:15.340Z,99591.03
2023-04-26T17:27:19.794Z,99591.78
2023-04-26T17:31:22.844Z,99597.72
2023-04-26T17:35:26.400Z,99604.78
2023-04-26T17:39:30.026Z,99603.25
2023-04-26T17:43:34.483Z,99610.50
2023-04-26T17:47:37.704Z,99612.53
2023-04-26T17:51:41.162Z,99615.69
2023-04-26T17:55:44.050Z,99632.06
2023-04-26T17:59:48.520Z,99634.81
2023-04-26T18:03:52.212Z,99643.25
2023-04-26T18:07:55.406Z,99639.03
2023-04-26T18:11:58.401Z,99645.19
2023-04-26T18:16:03.926Z,99651.97
2023-04-26T18:20:08.049Z,99644.66
2023-04-26T18:24:11.460Z,99652.63
2023-04-26T18:28:14.847Z,99654.13
2023-04-26T18:32:19.356Z,99657.06
2023-04-26T18:36:22.467Z,99663.47
2023-04-26T18:40:28.405Z,99665.78
2023-04-26T18:44:32.840Z,99666.44
2023-04-26T18:48:37.351Z,99667.00
2023-04-26T18:52:40.453Z,99670.00
2023-04-26T18:56:43.582Z,99680.69
2023-04-26T19:00:49.967Z,99687.88
2023-04-26T19:04:54.188Z,99687.00
2023-04-26T19:08:58.449Z,99687.72
2023-04-26T19:13:01.464Z,99691.78
2023-04-26T19:17:05.195Z,99695.38
2023-04-26T19:21:10.325Z,99692.78
2023-04-26T19:25:14.122Z,99691.22
2023-04-26T19:29:17.707Z,99691.34
2023-04-26T19:33:20.945Z,99699.41
2023-04-26T19:37:25.383Z,99697.25
2023-04-26T19:41:28.900Z,99700.75
2023-04-26T19:45:32.117Z,99697.06
2023-04-26T19:49:36.941Z,99698.94
2023-04-26T19:53:41.349Z,99700.69
2023-04-26T19:57:44.515Z,99704.66
2023-04-26T20:01:47.764Z,99700.22
2023-04-26T20:05:50.847Z,99703.22
2023-04-26T20:09:55.264Z,99697.16
2023-04-26T20:13:58.527Z,99717.91
2023-04-26T20:18:02.440Z,99711.03
2023-04-26T20:22:05.299Z,99717.94
2023-04-26T20:26:10.000Z,99727.34
2023-04-26T20:30:13.918Z,99726.16
2023-04-26T20:34:17.239Z,99725.94
2023-04-26T20:38:21.195Z,99717.81
2023-04-26T20:42:25.912Z,99720.81
2023-04-26T20:46:30.979Z,99726.38
2023-04-26T20:50:35.987Z,99724.78
2023-04-26T20:54:42.837Z,99722.50
2023-04-26T20:58:47.106Z,99724.59
2023-04-26T21:02:50.480Z,99718.91
2023-04-26T21:07:02.248Z,99725.16
2023-04-26T21:11:05.626Z,99730.63
2023-04-26T21:15:13.762Z,99736.94
2023-04-26T21:19:16.856Z,99736.34
2023-04-26T21:23:20.431Z,99742.72
2023-04-26T21:27:23.866Z,99746.47
2023-04-26T21:31:28.636Z,99749.44
2023-04-26T21:35:31.610Z,99764.34
2023-04-26T21:39:39.994Z,99761.91
2023-04-26T21:43:43.016Z,99765.53
2023-04-26T21:47:47.507Z,99769.19
2023-04-26T21:51:50.903Z,99768.44
2023-04-26T21:55:56.564Z,99762.53
2023-04-26T21:59:59.521Z,99766.22
2023-04-26T22:04:03.741Z,99773.28
2023-04-26T22:08:07.049Z,99774.09
2023-04-26T22:12:10.104Z,99781.19
2023-04-26T22:16:13.336Z,99778.63
2023-04-26T22:20:18.030Z,99787.38
2023-04-26T22:24:21.185Z,99782.28
2023-04-26T22:28:24.364Z,99790.09
2023-04-26T22:32:28.963Z,99791.06
2023-04-26T22:36:33.944Z,99787.88
2023-04-26T22:40:39.925Z,99793.13
2023-04-26T22:44:43.057Z,99800.81
2023-04-26T22:48:45.946Z,99811.25
2023-04-26T22:52:51.205Z,99802.78
2023-04-26T22:56:54.430Z,99806.41
2023-04-26T23:00:57.504Z,99817.63
2023-04-26T23:05:01.133Z,99815.72
2023-04-26T23:09:05.816Z,99822.59
2023-04-26T23:13:09.152Z,99818.28
2023-04-26T23:17:13.033Z,99830.38
2023-04-26T23:21:16.108Z,99824.38
2023-04-26T23:25:20.470Z,99830.38
2023-04-26T23:29:23.581Z,99838.13
2023-04-26T23:33:26.591Z,99832.09
2023-04-26T23:37:29.596Z,99829.50
2023-04-26T23:41:34.358Z,99838.19
2023-04-26T23:45:37.611Z,99844.22
2023-04-26T23:49:40.820Z,99837.22
2023-04-26T23:53:44.118Z,99835.44
2023-04-26T23:57:48.390Z,99839.66
